createdAt,value
2022-10-06T12:10:23.602Z,20.26
2022-10-06T12:11:23.564Z,20.43
2022-10-06T12:12:23.557Z,20.35
2022-10-06T12:14:12.328Z,20.48
2022-10-06T12:16:25.859Z,20.16
2022-10-06T12:17:23.467Z,21.06
2022-10-06T12:18:23.446Z,20.54
2022-10-06T12:19:23.428Z,20.47
2022-10-06T12:20:23.436Z,20.82
2022-10-06T12:21:23.398Z,20.47
2022-10-06T12:22:23.382Z,20.29
2022-10-06T12:23:23.380Z,20.35
2022-10-06T12:24:23.352Z,20.55
2022-10-06T12:25:23.352Z,20.02
2022-10-06T12:26:23.340Z,19.81
2022-10-06T12:27:25.750Z,20.38
2022-10-06T12:28:23.352Z,20.41
2022-10-06T12:29:23.269Z,20.76
2022-10-06T12:30:23.277Z,20.94
2022-10-06T12:31:23.281Z,20.69
2022-10-06T12:32:23.226Z,20.33
2022-10-06T12:33:23.240Z,20.20
2022-10-06T12:34:23.205Z,20.20
2022-10-06T12:35:23.195Z,20.21
2022-10-06T12:36:23.177Z,20.55
2022-10-06T12:37:23.152Z,20.42
2022-10-06T12:38:23.139Z,20.58
2022-10-06T12:39:23.123Z,21.06
2022-10-06T12:40:23.128Z,21.01
2022-10-06T12:41:23.112Z,21.10
2022-10-06T12:42:23.078Z,21.24
2022-10-06T12:43:23.062Z,21.09
2022-10-06T12:44:23.054Z,21.07
2022-10-06T12:45:23.059Z,20.89
2022-10-06T12:46:23.082Z,21.07
2022-10-06T12:47:23.026Z,21.03
2022-10-06T12:48:22.995Z,21.40
2022-10-06T12:49:22.985Z,21.40
2022-10-06T12:50:22.966Z,21.03
2022-10-06T12:51:23.041Z,20.42
2022-10-06T12:52:22.955Z,20.03
2022-10-06T12:53:22.932Z,19.95
2022-10-06T12:54:22.918Z,20.14
2022-10-06T12:55:22.907Z,20.20
2022-10-06T12:56:22.999Z,20.38
2022-10-06T12:57:22.875Z,20.59
2022-10-06T12:58:22.863Z,20.43
2022-10-06T12:59:22.850Z,20.85
2022-10-06T13:00:22.890Z,21.07
2022-10-06T13:01:22.889Z,20.55
2022-10-06T13:02:22.865Z,20.80
2022-10-06T13:03:22.816Z,20.80
2022-10-06T13:04:22.787Z,20.87
2022-10-06T13:05:22.789Z,21.04
2022-10-06T13:06:22.782Z,21.28
2022-10-06T13:07:22.749Z,21.17
2022-10-06T13:08:22.744Z,21.58
2022-10-06T13:09:22.735Z,21.61
2022-10-06T13:10:22.722Z,21.62
2022-10-06T13:11:22.713Z,21.80
2022-10-06T13:12:22.684Z,21.75
2022-10-06T13:13:22.680Z,22.10
2022-10-06T13:14:22.671Z,22.57
2022-10-06T13:15:22.699Z,22.42
2022-10-06T13:16:22.727Z,22.24
2022-10-06T13:17:22.635Z,21.99
2022-10-06T13:18:22.621Z,21.67
2022-10-06T13:19:22.604Z,21.27
2022-10-06T13:20:22.591Z,21.68
2022-10-06T13:21:22.604Z,21.86
2022-10-06T13:22:22.570Z,21.68
2022-10-06T13:23:22.561Z,22.02
2022-10-06T13:24:22.542Z,21.80
2022-10-06T13:25:22.528Z,21.01
2022-10-06T13:26:22.527Z,20.74
2022-10-06T13:27:22.514Z,20.43
2022-10-06T13:28:22.649Z,20.70
2022-10-06T13:29:22.487Z,20.84
2022-10-06T13:30:22.473Z,20.76
2022-10-06T13:31:22.497Z,20.41
2022-10-06T13:32:22.439Z,20.55
2022-10-06T13:33:22.440Z,20.26
2022-10-06T13:34:22.421Z,20.28
2022-10-06T13:35:22.410Z,20.31
2022-10-06T13:36:22.404Z,20.43
2022-10-06T13:37:22.388Z,20.41
2022-10-06T13:38:22.375Z,20.36
2022-10-06T13:39:22.374Z,20.43
2022-10-06T13:40:43.476Z,20.66
2022-10-06T13:41:22.351Z,20.76
2022-10-06T13:42:22.325Z,21.22
2022-10-06T13:43:22.306Z,21.53
2022-10-06T13:44:22.303Z,22.00
2022-10-06T13:45:22.291Z,22.45
2022-10-06T13:46:22.350Z,22.80
2022-10-06T13:47:22.256Z,23.27
2022-10-06T13:48:22.254Z,23.73
2022-10-06T13:49:22.248Z,23.75
2022-10-06T13:50:22.226Z,24.21
2022-10-06T13:51:22.236Z,23.90
2022-10-06T13:52:22.200Z,24.09
2022-10-06T13:53:22.185Z,24.13
2022-10-06T13:54:22.175Z,23.61
2022-10-06T13:55:22.172Z,23.65
2022-10-06T13:56:22.212Z,23.98
2022-10-06T13:57:22.157Z,23.95
2022-10-06T13:58:22.142Z,24.16
2022-10-06T13:59:22.131Z,23.98
2022-10-06T14:10:30.188Z,23.20
2022-10-06T14:11:30.105Z,23.27
2022-10-06T14:12:30.092Z,23.15
2022-10-06T14:13:30.079Z,23.70
2022-10-06T14:14:30.055Z,23.58
2022-10-06T14:15:30.121Z,22.97
2022-10-06T14:16:30.062Z,22.45
2022-10-06T14:17:30.020Z,22.22
2022-10-06T14:18:30.008Z,22.37
2022-10-06T14:19:30.006Z,22.46
2022-10-06T14:20:29.988Z,22.77
2022-10-06T14:21:29.987Z,23.00
2022-10-06T14:22:29.968Z,23.09
2022-10-06T14:23:37.809Z,23.12
2022-10-06T14:24:29.943Z,23.28
2022-10-06T14:25:29.944Z,22.70
2022-10-06T14:26:29.945Z,22.60
2022-10-06T14:27:29.926Z,22.43
2022-10-06T14:28:29.950Z,22.07
2022-10-06T14:29:29.916Z,22.28
2022-10-06T14:30:29.891Z,22.35
2022-10-06T14:31:29.902Z,22.85
2022-10-06T14:32:29.873Z,23.09
2022-10-06T14:33:29.861Z,22.73
2022-10-06T14:34:29.841Z,22.00
2022-10-06T14:35:29.843Z,21.31
2022-10-06T14:36:29.821Z,20.77
2022-10-06T14:37:29.813Z,20.42
2022-10-06T14:38:29.813Z,20.32
